sensor_id;sensor_type;location;lat;lon;timestamp;P1;durP1;ratioP1;P2;durP2;ratioP2
16304;SDS011;8261;47.678;-122.174;2022-10-22T00:00:30;6.13;;;1.97;;
16304;SDS011;8261;47.678;-122.174;2022-10-22T00:03:01;6.03;;;2.07;;
16304;SDS011;8261;47.678;-122.174;2022-10-22T00:05:34;6.67;;;2.10;;
16304;SDS011;8261;47.678;-122.174;2022-10-22T00:08:06;8.10;;;2.27;;
16304;SDS011;8261;47.678;-122.174;2022-10-22T00:10:37;6.20;;;1.87;;
16304;SDS011;8261;47.678;-122.174;2022-10-22T00:13:08;6.20;;;2.00;;
16304;SDS011;8261;47.678;-122.174;2022-10-22T00:15:39;5.47;;;1.67;;
16304;SDS011;8261;47.678;-122.174;2022-10-22T00:18:10;5.10;;;2.10;;
16304;SDS011;8261;47.678;-122.174;2022-10-22T00:20:44;5.53;;;1.80;;
16304;SDS011;8261;47.678;-122.174;2022-10-22T00:23:15;5.90;;;2.27;;
16304;SDS011;8261;47.678;-122.174;2022-10-22T00:25:46;6.50;;;2.27;;
16304;SDS011;8261;47.678;-122.174;2022-10-22T00:28:17;3.83;;;1.97;;
16304;SDS011;8261;47.678;-122.174;2022-10-22T00:30:54;4.97;;;2.40;;
16304;SDS011;8261;47.678;-122.174;2022-10-22T00:33:26;7.37;;;2.00;;
16304;SDS011;8261;47.678;-122.174;2022-10-22T00:35:59;5.63;;;2.37;;
16304;SDS011;8261;47.678;-122.174;2022-10-22T00:38:31;5.37;;;3.20;;
16304;SDS011;8261;47.678;-122.174;2022-10-22T00:41:03;7.97;;;3.53;;
16304;SDS011;8261;47.678;-122.174;2022-10-22T00:46:24;8.20;;;3.93;;
16304;SDS011;8261;47.678;-122.174;2022-10-22T00:48:55;7.50;;;2.80;;
16304;SDS011;8261;47.678;-122.174;2022-10-22T00:51:31;7.23;;;2.47;;
16304;SDS011;8261;47.678;-122.174;2022-10-22T00:54:04;6.00;;;2.17;;
16304;SDS011;8261;47.678;-122.174;2022-10-22T00:56:37;5.70;;;2.10;;
16304;SDS011;8261;47.678;-122.174;2022-10-22T00:59:07;6.67;;;2.43;;
16304;SDS011;8261;47.678;-122.174;2022-10-22T01:01:40;4.50;;;2.30;;
16304;SDS011;8261;47.678;-122.174;2022-10-22T01:04:12;4.57;;;2.43;;
16304;SDS011;8261;47.678;-122.174;2022-10-22T01:06:45;4.77;;;2.53;;
16304;SDS011;8261;47.678;-122.174;2022-10-22T01:09:18;6.47;;;2.57;;
16304;SDS011;8261;47.678;-122.174;2022-10-22T01:11:56;3.53;;;2.17;;
16304;SDS011;8261;47.678;-122.174;2022-10-22T01:14:33;5.33;;;2.37;;
16304;SDS011;8261;47.678;-122.174;2022-10-22T01:17:13;4.77;;;2.10;;
16304;SDS011;8261;47.678;-122.174;2022-10-22T01:19:57;4.90;;;2.33;;
16304;SDS011;8261;47.678;-122.174;2022-10-22T01:22:38;5.57;;;2.43;;
16304;SDS011;8261;47.678;-122.174;2022-10-22T01:25:13;8.03;;;2.50;;
16304;SDS011;8261;47.678;-122.174;2022-10-22T01:27:54;6.53;;;2.37;;
16304;SDS011;8261;47.678;-122.174;2022-10-22T01:30:37;6.17;;;2.80;;
16304;SDS011;8261;47.678;-122.174;2022-10-22T01:33:11;6.03;;;2.60;;
16304;SDS011;8261;47.678;-122.174;2022-10-22T01:35:44;5.23;;;2.43;;
16304;SDS011;8261;47.678;-122.174;2022-10-22T01:38:16;6.23;;;2.77;;
16304;SDS011;8261;47.678;-122.174;2022-10-22T01:40:51;5.83;;;2.90;;
16304;SDS011;8261;47.678;-122.174;2022-10-22T01:43:25;7.23;;;3.10;;
16304;SDS011;8261;47.678;-122.174;2022-10-22T01:46:01;8.00;;;2.70;;
16304;SDS011;8261;47.678;-122.174;2022-10-22T01:48:39;6.37;;;2.60;;
16304;SDS011;8261;47.678;-122.174;2022-10-22T01:51:38;8.87;;;3.70;;
16304;SDS011;8261;47.678;-122.174;2022-10-22T01:54:25;7.77;;;4.07;;
16304;SDS011;8261;47.678;-122.174;2022-10-22T01:57:04;6.77;;;3.37;;
16304;SDS011;8261;47.678;-122.174;2022-10-22T01:59:43;7.13;;;3.27;;
16304;SDS011;8261;47.678;-122.174;2022-10-22T02:02:27;6.23;;;2.93;;
16304;SDS011;8261;47.678;-122.174;2022-10-22T02:05:06;8.10;;;3.27;;
16304;SDS011;8261;47.678;-122.174;2022-10-22T02:07:42;5.70;;;3.43;;
16304;SDS011;8261;47.678;-122.174;2022-10-22T02:10:16;7.60;;;3.97;;
16304;SDS011;8261;47.678;-122.174;2022-10-22T02:12:49;6.73;;;3.87;;
16304;SDS011;8261;47.678;-122.174;2022-10-22T02:15:22;6.10;;;3.47;;
16304;SDS011;8261;47.678;-122.174;2022-10-22T02:17:57;7.93;;;3.10;;
16304;SDS011;8261;47.678;-122.174;2022-10-22T02:20:30;4.93;;;3.03;;
16304;SDS011;8261;47.678;-122.174;2022-10-22T02:23:04;6.10;;;3.60;;
16304;SDS011;8261;47.678;-122.174;2022-10-22T02:25:36;6.17;;;3.10;;
16304;SDS011;8261;47.678;-122.174;2022-10-22T02:28:11;8.10;;;3.80;;
16304;SDS011;8261;47.678;-122.174;2022-10-22T02:30:46;4.60;;;2.90;;
16304;SDS011;8261;47.678;-122.174;2022-10-22T02:33:27;4.90;;;3.70;;
16304;SDS011;8261;47.678;-122.174;2022-10-22T02:36:00;7.70;;;3.60;;
16304;SDS011;8261;47.678;-122.174;2022-10-22T02:38:33;6.20;;;3.40;;
16304;SDS011;8261;47.678;-122.174;2022-10-22T02:41:06;5.37;;;2.70;;
16304;SDS011;8261;47.678;-122.174;2022-10-22T02:43:41;5.40;;;2.37;;
16304;SDS011;8261;47.678;-122.174;2022-10-22T02:46:18;4.10;;;1.97;;
16304;SDS011;8261;47.678;-122.174;2022-10-22T02:48:51;5.27;;;2.53;;
16304;SDS011;8261;47.678;-122.174;2022-10-22T02:51:22;3.80;;;1.70;;
16304;SDS011;8261;47.678;-122.174;2022-10-22T02:53:53;4.27;;;2.20;;
16304;SDS011;8261;47.678;-122.174;2022-10-22T02:56:24;3.33;;;1.73;;
16304;SDS011;8261;47.678;-122.174;2022-10-22T02:58:56;4.70;;;1.77;;
16304;SDS011;8261;47.678;-122.174;2022-10-22T03:01:27;4.03;;;1.80;;
16304;SDS011;8261;47.678;-122.174;2022-10-22T03:04:01;5.10;;;2.13;;
16304;SDS011;8261;47.678;-122.174;2022-10-22T03:06:32;4.50;;;1.93;;
16304;SDS011;8261;47.678;-122.174;2022-10-22T03:09:03;8.83;;;1.90;;
16304;SDS011;8261;47.678;-122.174;2022-10-22T03:11:34;5.40;;;1.80;;
16304;SDS011;8261;47.678;-122.174;2022-10-22T03:14:06;3.53;;;1.50;;
16304;SDS011;8261;47.678;-122.174;2022-10-22T03:16:37;2.43;;;1.67;;
16304;SDS011;8261;47.678;-122.174;2022-10-22T03:19:10;6.93;;;1.90;;
16304;SDS011;8261;47.678;-122.174;2022-10-22T03:21:43;7.27;;;1.70;;
16304;SDS011;8261;47.678;-122.174;2022-10-22T03:24:18;2.70;;;1.63;;
16304;SDS011;8261;47.678;-122.174;2022-10-22T03:26:53;5.47;;;2.10;;
16304;SDS011;8261;47.678;-122.174;2022-10-22T03:29:25;4.50;;;1.67;;
16304;SDS011;8261;47.678;-122.174;2022-10-22T03:31:56;4.17;;;1.90;;
16304;SDS011;8261;47.678;-122.174;2022-10-22T03:34:30;6.97;;;1.70;;
16304;SDS011;8261;47.678;-122.174;2022-10-22T03:37:01;5.27;;;1.83;;
16304;SDS011;8261;47.678;-122.174;2022-10-22T03:39:33;5.73;;;1.83;;
16304;SDS011;8261;47.678;-122.174;2022-10-22T03:42:04;5.43;;;1.80;;
16304;SDS011;8261;47.678;-122.174;2022-10-22T03:44:36;4.83;;;2.00;;
16304;SDS011;8261;47.678;-122.174;2022-10-22T03:47:09;3.63;;;1.77;;
16304;SDS011;8261;47.678;-122.174;2022-10-22T03:49:45;2.83;;;1.90;;
16304;SDS011;8261;47.678;-122.174;2022-10-22T03:52:17;3.87;;;1.77;;
16304;SDS011;8261;47.678;-122.174;2022-10-22T03:54:49;4.93;;;1.87;;
16304;SDS011;8261;47.678;-122.174;2022-10-22T03:57:20;3.87;;;2.00;;
16304;SDS011;8261;47.678;-122.174;2022-10-22T03:59:52;4.63;;;2.20;;
16304;SDS011;8261;47.678;-122.174;2022-10-22T04:02:23;5.27;;;1.90;;
16304;SDS011;8261;47.678;-122.174;2022-10-22T04:04:56;5.33;;;1.73;;
16304;SDS011;8261;47.678;-122.174;2022-10-22T04:07:28;4.40;;;2.03;;
16304;SDS011;8261;47.678;-122.174;2022-10-22T04:09:59;4.03;;;1.70;;
16304;SDS011;8261;47.678;-122.174;2022-10-22T04:12:31;3.97;;;1.90;;
16304;SDS011;8261;47.678;-122.174;2022-10-22T04:15:02;4.63;;;2.00;;
16304;SDS011;8261;47.678;-122.174;2022-10-22T04:17:34;5.67;;;2.27;;
16304;SDS011;8261;47.678;-122.174;2022-10-22T04:20:09;5.53;;;2.03;;
16304;SDS011;8261;47.678;-122.174;2022-10-22T04:22:40;5.97;;;2.00;;
16304;SDS011;8261;47.678;-122.174;2022-10-22T04:25:12;3.97;;;2.27;;
16304;SDS011;8261;47.678;-122.174;2022-10-22T04:27:44;4.00;;;2.00;;
16304;SDS011;8261;47.678;-122.174;2022-10-22T04:30:15;5.37;;;2.07;;
16304;SDS011;8261;47.678;-122.174;2022-10-22T04:32:46;3.33;;;1.80;;
16304;SDS011;8261;47.678;-122.174;2022-10-22T04:35:19;2.60;;;1.90;;
16304;SDS011;8261;47.678;-122.174;2022-10-22T04:37:56;6.93;;;2.07;;
16304;SDS011;8261;47.678;-122.174;2022-10-22T04:40:27;2.33;;;2.00;;
16304;SDS011;8261;47.678;-122.174;2022-10-22T04:42:58;6.53;;;2.17;;
16304;SDS011;8261;47.678;-122.174;2022-10-22T04:45:30;5.53;;;1.90;;
16304;SDS011;8261;47.678;-122.174;2022-10-22T04:48:02;4.50;;;2.40;;
16304;SDS011;8261;47.678;-122.174;2022-10-22T04:50:36;3.00;;;2.03;;
16304;SDS011;8261;47.678;-122.174;2022-10-22T04:53:07;2.87;;;1.70;;
16304;SDS011;8261;47.678;-122.174;2022-10-22T04:55:39;6.53;;;2.17;;
16304;SDS011;8261;47.678;-122.174;2022-10-22T04:58:11;4.77;;;2.03;;
16304;SDS011;8261;47.678;-122.174;2022-10-22T05:00:42;6.70;;;2.30;;
16304;SDS011;8261;47.678;-122.174;2022-10-22T05:03:14;5.47;;;2.27;;
16304;SDS011;8261;47.678;-122.174;2022-10-22T05:05:47;3.73;;;2.43;;
16304;SDS011;8261;47.678;-122.174;2022-10-22T05:08:18;3.03;;;2.30;;
16304;SDS011;8261;47.678;-122.174;2022-10-22T05:10:49;3.23;;;2.30;;
16304;SDS011;8261;47.678;-122.174;2022-10-22T05:13:20;3.43;;;2.10;;
16304;SDS011;8261;47.678;-122.174;2022-10-22T05:15:51;4.93;;;2.20;;
16304;SDS011;8261;47.678;-122.174;2022-10-22T05:18:22;5.23;;;2.07;;
16304;SDS011;8261;47.678;-122.174;2022-10-22T05:20:55;4.33;;;2.30;;
16304;SDS011;8261;47.678;-122.174;2022-10-22T05:23:27;5.27;;;2.47;;
16304;SDS011;8261;47.678;-122.174;2022-10-22T05:26:00;3.70;;;2.00;;
16304;SDS011;8261;47.678;-122.174;2022-10-22T05:28:33;3.17;;;2.00;;
16304;SDS011;8261;47.678;-122.174;2022-10-22T05:31:05;5.33;;;2.20;;
16304;SDS011;8261;47.678;-122.174;2022-10-22T05:33:37;3.20;;;2.00;;
16304;SDS011;8261;47.678;-122.174;2022-10-22T05:36:11;3.13;;;2.30;;
16304;SDS011;8261;47.678;-122.174;2022-10-22T05:38:44;3.80;;;2.57;;
16304;SDS011;8261;47.678;-122.174;2022-10-22T05:41:15;5.57;;;2.67;;
16304;SDS011;8261;47.678;-122.174;2022-10-22T05:43:50;5.67;;;2.83;;
16304;SDS011;8261;47.678;-122.174;2022-10-22T05:46:24;3.93;;;2.87;;
16304;SDS011;8261;47.678;-122.174;2022-10-22T05:48:57;4.17;;;2.30;;
16304;SDS011;8261;47.678;-122.174;2022-10-22T05:51:34;5.03;;;3.23;;
16304;SDS011;8261;47.678;-122.174;2022-10-22T05:54:06;5.17;;;3.10;;
16304;SDS011;8261;47.678;-122.174;2022-10-22T05:56:39;5.83;;;3.27;;
16304;SDS011;8261;47.678;-122.174;2022-10-22T05:59:10;5.17;;;2.50;;
16304;SDS011;8261;47.678;-122.174;2022-10-22T06:01:42;5.97;;;2.77;;
16304;SDS011;8261;47.678;-122.174;2022-10-22T06:04:13;4.33;;;2.30;;
16304;SDS011;8261;47.678;-122.174;2022-10-22T06:06:48;4.67;;;2.93;;
16304;SDS011;8261;47.678;-122.174;2022-10-22T06:09:22;3.57;;;2.93;;
16304;SDS011;8261;47.678;-122.174;2022-10-22T06:11:57;3.37;;;1.97;;
16304;SDS011;8261;47.678;-122.174;2022-10-22T06:14:28;3.23;;;2.37;;
16304;SDS011;8261;47.678;-122.174;2022-10-22T06:17:00;4.30;;;2.50;;
16304;SDS011;8261;47.678;-122.174;2022-10-22T06:19:31;5.07;;;2.30;;
16304;SDS011;8261;47.678;-122.174;2022-10-22T06:22:04;2.70;;;2.10;;
16304;SDS011;8261;47.678;-122.174;2022-10-22T06:24:35;3.70;;;1.93;;
16304;SDS011;8261;47.678;-122.174;2022-10-22T06:27:10;2.70;;;1.60;;
16304;SDS011;8261;47.678;-122.174;2022-10-22T06:29:43;2.73;;;1.70;;
16304;SDS011;8261;47.678;-122.174;2022-10-22T06:32:16;4.30;;;1.83;;
16304;SDS011;8261;47.678;-122.174;2022-10-22T06:34:47;2.57;;;1.70;;
16304;SDS011;8261;47.678;-122.174;2022-10-22T06:37:21;2.20;;;1.50;;
16304;SDS011;8261;47.678;-122.174;2022-10-22T06:39:52;3.73;;;1.60;;
16304;SDS011;8261;47.678;-122.174;2022-10-22T06:42:23;3.47;;;1.70;;
16304;SDS011;8261;47.678;-122.174;2022-10-22T06:44:56;4.80;;;1.63;;
16304;SDS011;8261;47.678;-122.174;2022-10-22T06:47:27;3.13;;;1.80;;
16304;SDS011;8261;47.678;-122.174;2022-10-22T06:50:00;3.67;;;2.10;;
16304;SDS011;8261;47.678;-122.174;2022-10-22T06:52:33;3.80;;;2.03;;
16304;SDS011;8261;47.678;-122.174;2022-10-22T06:55:04;5.70;;;2.40;;
16304;SDS011;8261;47.678;-122.174;2022-10-22T06:57:36;4.57;;;2.03;;
16304;SDS011;8261;47.678;-122.174;2022-10-22T07:00:08;4.57;;;2.17;;
16304;SDS011;8261;47.678;-122.174;2022-10-22T07:02:41;6.53;;;2.10;;
16304;SDS011;8261;47.678;-122.174;2022-10-22T07:05:13;5.13;;;2.10;;
16304;SDS011;8261;47.678;-122.174;2022-10-22T07:07:47;6.97;;;2.40;;
16304;SDS011;8261;47.678;-122.174;2022-10-22T07:10:18;6.33;;;2.50;;
16304;SDS011;8261;47.678;-122.174;2022-10-22T07:12:54;6.03;;;2.80;;
16304;SDS011;8261;47.678;-122.174;2022-10-22T07:15:25;4.40;;;2.13;;
16304;SDS011;8261;47.678;-122.174;2022-10-22T07:17:56;4.37;;;2.53;;
16304;SDS011;8261;47.678;-122.174;2022-10-22T07:20:28;5.83;;;2.70;;
16304;SDS011;8261;47.678;-122.174;2022-10-22T07:23:02;5.67;;;2.60;;
16304;SDS011;8261;47.678;-122.174;2022-10-22T07:25:33;5.37;;;3.40;;
16304;SDS011;8261;47.678;-122.174;2022-10-22T07:28:04;5.83;;;2.80;;
16304;SDS011;8261;47.678;-122.174;2022-10-22T07:30:36;6.60;;;2.63;;
16304;SDS011;8261;47.678;-122.174;2022-10-22T07:33:07;4.87;;;2.23;;
16304;SDS011;8261;47.678;-122.174;2022-10-22T07:35:39;4.57;;;2.10;;
16304;SDS011;8261;47.678;-122.174;2022-10-22T07:38:13;3.03;;;2.37;;
16304;SDS011;8261;47.678;-122.174;2022-10-22T07:40:44;6.20;;;2.50;;
16304;SDS011;8261;47.678;-122.174;2022-10-22T07:43:16;6.97;;;2.20;;
16304;SDS011;8261;47.678;-122.174;2022-10-22T07:45:48;5.13;;;2.07;;
16304;SDS011;8261;47.678;-122.174;2022-10-22T07:48:19;6.17;;;2.43;;
16304;SDS011;8261;47.678;-122.174;2022-10-22T07:50:51;3.47;;;1.90;;
16304;SDS011;8261;47.678;-122.174;2022-10-22T07:53:24;3.67;;;1.90;;
16304;SDS011;8261;47.678;-122.174;2022-10-22T07:55:55;3.40;;;2.10;;
16304;SDS011;8261;47.678;-122.174;2022-10-22T07:58:26;3.20;;;1.93;;
16304;SDS011;8261;47.678;-122.174;2022-10-22T08:00:58;5.80;;;2.07;;
16304;SDS011;8261;47.678;-122.174;2022-10-22T08:03:32;5.07;;;2.10;;
16304;SDS011;8261;47.678;-122.174;2022-10-22T08:06:03;4.23;;;1.90;;
16304;SDS011;8261;47.678;-122.174;2022-10-22T08:08:37;3.30;;;1.73;;
16304;SDS011;8261;47.678;-122.174;2022-10-22T08:11:08;2.80;;;1.93;;
16304;SDS011;8261;47.678;-122.174;2022-10-22T08:13:40;3.00;;;1.53;;
16304;SDS011;8261;47.678;-122.174;2022-10-22T08:16:11;8.23;;;2.20;;
16304;SDS011;8261;47.678;-122.174;2022-10-22T08:18:43;5.63;;;1.80;;
16304;SDS011;8261;47.678;-122.174;2022-10-22T08:21:14;3.87;;;1.50;;
16304;SDS011;8261;47.678;-122.174;2022-10-22T08:23:48;3.80;;;1.60;;
16304;SDS011;8261;47.678;-122.174;2022-10-22T08:26:20;2.27;;;1.50;;
16304;SDS011;8261;47.678;-122.174;2022-10-22T08:28:52;4.20;;;1.60;;
16304;SDS011;8261;47.678;-122.174;2022-10-22T08:31:23;4.30;;;1.70;;
16304;SDS011;8261;47.678;-122.174;2022-10-22T08:33:55;3.57;;;1.37;;
16304;SDS011;8261;47.678;-122.174;2022-10-22T08:36:26;4.57;;;1.57;;
16304;SDS011;8261;47.678;-122.174;2022-10-22T08:39:00;4.03;;;1.37;;
16304;SDS011;8261;47.678;-122.174;2022-10-22T08:41:31;2.13;;;1.20;;
16304;SDS011;8261;47.678;-122.174;2022-10-22T08:44:16;2.10;;;1.17;;
16304;SDS011;8261;47.678;-122.174;2022-10-22T08:47:13;4.40;;;1.17;;
16304;SDS011;8261;47.678;-122.174;2022-10-22T08:49:57;2.50;;;1.10;;
16304;SDS011;8261;47.678;-122.174;2022-10-22T08:52:30;5.40;;;1.47;;
16304;SDS011;8261;47.678;-122.174;2022-10-22T08:55:08;6.03;;;1.33;;
16304;SDS011;8261;47.678;-122.174;2022-10-22T08:57:47;2.17;;;1.00;;
16304;SDS011;8261;47.678;-122.174;2022-10-22T09:00:27;2.57;;;1.20;;
16304;SDS011;8261;47.678;-122.174;2022-10-22T09:03:06;1.70;;;1.00;;
16304;SDS011;8261;47.678;-122.174;2022-10-22T09:05:55;2.17;;;1.10;;
16304;SDS011;8261;47.678;-122.174;2022-10-22T09:08:32;1.80;;;1.10;;
16304;SDS011;8261;47.678;-122.174;2022-10-22T09:11:12;2.93;;;1.30;;
16304;SDS011;8261;47.678;-122.174;2022-10-22T09:13:49;5.83;;;1.33;;
16304;SDS011;8261;47.678;-122.174;2022-10-22T09:16:25;2.90;;;1.30;;
16304;SDS011;8261;47.678;-122.174;2022-10-22T09:19:09;4.23;;;1.50;;
16304;SDS011;8261;47.678;-122.174;2022-10-22T09:21:51;3.00;;;1.70;;
16304;SDS011;8261;47.678;-122.174;2022-10-22T09:24:32;2.03;;;1.33;;
16304;SDS011;8261;47.678;-122.174;2022-10-22T09:27:12;1.87;;;1.30;;
16304;SDS011;8261;47.678;-122.174;2022-10-22T09:29:46;1.37;;;1.10;;
16304;SDS011;8261;47.678;-122.174;2022-10-22T09:32:19;1.67;;;1.20;;
16304;SDS011;8261;47.678;-122.174;2022-10-22T09:34:53;2.23;;;1.00;;
16304;SDS011;8261;47.678;-122.174;2022-10-22T09:37:27;2.97;;;1.20;;
16304;SDS011;8261;47.678;-122.174;2022-10-22T09:39:59;2.23;;;1.30;;
16304;SDS011;8261;47.678;-122.174;2022-10-22T09:42:38;1.80;;;1.50;;
16304;SDS011;8261;47.678;-122.174;2022-10-22T09:45:14;3.43;;;1.40;;
16304;SDS011;8261;47.678;-122.174;2022-10-22T09:47:48;3.87;;;1.37;;
16304;SDS011;8261;47.678;-122.174;2022-10-22T09:50:34;2.23;;;1.50;;
16304;SDS011;8261;47.678;-122.174;2022-10-22T09:53:11;1.83;;;1.13;;
16304;SDS011;8261;47.678;-122.174;2022-10-22T09:55:50;2.20;;;1.20;;
16304;SDS011;8261;47.678;-122.174;2022-10-22T09:58:25;1.60;;;1.30;;
16304;SDS011;8261;47.678;-122.174;2022-10-22T10:00:57;1.63;;;1.17;;
16304;SDS011;8261;47.678;-122.174;2022-10-22T10:03:31;2.07;;;1.50;;
16304;SDS011;8261;47.678;-122.174;2022-10-22T10:06:03;1.50;;;1.30;;
16304;SDS011;8261;47.678;-122.174;2022-10-22T10:08:34;4.63;;;1.70;;
16304;SDS011;8261;47.678;-122.174;2022-10-22T10:11:07;2.97;;;1.60;;
16304;SDS011;8261;47.678;-122.174;2022-10-22T10:13:48;2.23;;;1.23;;
16304;SDS011;8261;47.678;-122.174;2022-10-22T10:16:33;2.90;;;1.57;;
16304;SDS011;8261;47.678;-122.174;2022-10-22T10:19:24;1.77;;;1.30;;
16304;SDS011;8261;47.678;-122.174;2022-10-22T10:22:04;5.00;;;1.50;;
16304;SDS011;8261;47.678;-122.174;2022-10-22T10:24:55;2.47;;;1.47;;
16304;SDS011;8261;47.678;-122.174;2022-10-22T10:27:40;3.23;;;1.50;;
16304;SDS011;8261;47.678;-122.174;2022-10-22T10:30:19;2.23;;;1.10;;
16304;SDS011;8261;47.678;-122.174;2022-10-22T10:33:04;2.93;;;1.10;;
16304;SDS011;8261;47.678;-122.174;2022-10-22T10:35:50;2.13;;;0.90;;
16304;SDS011;8261;47.678;-122.174;2022-10-22T10:41:18;2.00;;;1.00;;
16304;SDS011;8261;47.678;-122.174;2022-10-22T10:44:00;1.17;;;0.70;;
16304;SDS011;8261;47.678;-122.174;2022-10-22T10:46:44;2.13;;;1.00;;
16304;SDS011;8261;47.678;-122.174;2022-10-22T10:49:24;2.63;;;1.60;;
16304;SDS011;8261;47.678;-122.174;2022-10-22T10:52:00;1.30;;;1.03;;
16304;SDS011;8261;47.678;-122.174;2022-10-22T10:54:48;2.30;;;1.10;;
16304;SDS011;8261;47.678;-122.174;2022-10-22T10:57:31;2.93;;;0.97;;
16304;SDS011;8261;47.678;-122.174;2022-10-22T11:00:10;2.57;;;0.80;;
16304;SDS011;8261;47.678;-122.174;2022-10-22T11:06:10;3.67;;;1.00;;
16304;SDS011;8261;47.678;-122.174;2022-10-22T11:08:49;2.30;;;0.80;;
16304;SDS011;8261;47.678;-122.174;2022-10-22T11:11:29;1.17;;;0.90;;
16304;SDS011;8261;47.678;-122.174;2022-10-22T11:14:09;1.87;;;0.90;;
16304;SDS011;8261;47.678;-122.174;2022-10-22T11:16:52;0.80;;;0.80;;
16304;SDS011;8261;47.678;-122.174;2022-10-22T11:19:31;4.30;;;1.00;;
16304;SDS011;8261;47.678;-122.174;2022-10-22T11:22:27;1.47;;;0.87;;
16304;SDS011;8261;47.678;-122.174;2022-10-22T11:25:05;0.90;;;0.80;;
16304;SDS011;8261;47.678;-122.174;2022-10-22T11:27:48;1.53;;;0.90;;
16304;SDS011;8261;47.678;-122.174;2022-10-22T11:30:30;1.50;;;0.90;;
16304;SDS011;8261;47.678;-122.174;2022-10-22T11:33:05;2.70;;;0.83;;
16304;SDS011;8261;47.678;-122.174;2022-10-22T11:35:42;2.10;;;0.90;;
16304;SDS011;8261;47.678;-122.174;2022-10-22T11:38:17;2.47;;;0.77;;
16304;SDS011;8261;47.678;-122.174;2022-10-22T11:40:58;1.10;;;0.87;;
16304;SDS011;8261;47.678;-122.174;2022-10-22T11:43:31;2.40;;;1.00;;
16304;SDS011;8261;47.678;-122.174;2022-10-22T11:46:08;1.93;;;0.80;;
16304;SDS011;8261;47.678;-122.174;2022-10-22T11:49:02;1.20;;;1.10;;
16304;SDS011;8261;47.678;-122.174;2022-10-22T11:51:47;1.87;;;1.00;;
16304;SDS011;8261;47.678;-122.174;2022-10-22T11:54:29;3.00;;;1.20;;
16304;SDS011;8261;47.678;-122.174;2022-10-22T11:57:16;5.67;;;2.03;;
16304;SDS011;8261;47.678;-122.174;2022-10-22T11:59:51;3.37;;;1.50;;
16304;SDS011;8261;47.678;-122.174;2022-10-22T12:05:34;7.07;;;2.20;;
16304;SDS011;8261;47.678;-122.174;2022-10-22T12:08:16;10.93;;;2.03;;
16304;SDS011;8261;47.678;-122.174;2022-10-22T12:10:59;7.03;;;2.20;;
16304;SDS011;8261;47.678;-122.174;2022-10-22T12:13:50;7.77;;;2.40;;
16304;SDS011;8261;47.678;-122.174;2022-10-22T12:16:34;17.57;;;2.70;;
16304;SDS011;8261;47.678;-122.174;2022-10-22T12:19:25;4.10;;;2.43;;
16304;SDS011;8261;47.678;-122.174;2022-10-22T12:22:06;7.77;;;2.50;;
16304;SDS011;8261;47.678;-122.174;2022-10-22T12:24:49;9.17;;;3.00;;
16304;SDS011;8261;47.678;-122.174;2022-10-22T12:27:26;8.37;;;2.70;;
16304;SDS011;8261;47.678;-122.174;2022-10-22T12:30:15;3.93;;;3.00;;
16304;SDS011;8261;47.678;-122.174;2022-10-22T12:32:48;15.63;;;3.93;;
16304;SDS011;8261;47.678;-122.174;2022-10-22T12:35:23;15.53;;;3.43;;
16304;SDS011;8261;47.678;-122.174;2022-10-22T12:37:56;10.83;;;3.43;;
16304;SDS011;8261;47.678;-122.174;2022-10-22T12:40:33;6.63;;;3.57;;
16304;SDS011;8261;47.678;-122.174;2022-10-22T12:43:06;5.83;;;3.30;;
16304;SDS011;8261;47.678;-122.174;2022-10-22T12:45:42;4.60;;;3.43;;
16304;SDS011;8261;47.678;-122.174;2022-10-22T12:48:16;5.83;;;3.57;;
16304;SDS011;8261;47.678;-122.174;2022-10-22T12:50:51;5.57;;;3.83;;
16304;SDS011;8261;47.678;-122.174;2022-10-22T12:53:26;5.60;;;3.80;;
16304;SDS011;8261;47.678;-122.174;2022-10-22T12:56:01;5.27;;;2.30;;
16304;SDS011;8261;47.678;-122.174;2022-10-22T12:58:36;3.37;;;2.17;;
16304;SDS011;8261;47.678;-122.174;2022-10-22T13:01:09;3.93;;;2.10;;
16304;SDS011;8261;47.678;-122.174;2022-10-22T13:03:43;4.37;;;1.90;;
16304;SDS011;8261;47.678;-122.174;2022-10-22T13:06:23;4.93;;;2.10;;
16304;SDS011;8261;47.678;-122.174;2022-10-22T13:08:56;2.20;;;1.73;;
16304;SDS011;8261;47.678;-122.174;2022-10-22T13:11:39;2.70;;;2.10;;
16304;SDS011;8261;47.678;-122.174;2022-10-22T13:14:17;4.83;;;2.40;;
16304;SDS011;8261;47.678;-122.174;2022-10-22T13:17:05;5.60;;;2.33;;
16304;SDS011;8261;47.678;-122.174;2022-10-22T13:19:40;9.40;;;2.63;;
16304;SDS011;8261;47.678;-122.174;2022-10-22T13:22:32;17.03;;;3.43;;
16304;SDS011;8261;47.678;-122.174;2022-10-22T13:25:18;5.30;;;2.97;;
16304;SDS011;8261;47.678;-122.174;2022-10-22T13:27:54;6.87;;;2.73;;
16304;SDS011;8261;47.678;-122.174;2022-10-22T13:30:27;5.23;;;3.03;;
16304;SDS011;8261;47.678;-122.174;2022-10-22T13:33:00;6.03;;;3.30;;
16304;SDS011;8261;47.678;-122.174;2022-10-22T13:35:33;6.17;;;3.10;;
16304;SDS011;8261;47.678;-122.174;2022-10-22T13:38:09;6.30;;;3.10;;
16304;SDS011;8261;47.678;-122.174;2022-10-22T13:40:44;9.27;;;3.20;;
16304;SDS011;8261;47.678;-122.174;2022-10-22T13:43:18;14.37;;;3.70;;
16304;SDS011;8261;47.678;-122.174;2022-10-22T13:45:50;6.93;;;3.43;;
16304;SDS011;8261;47.678;-122.174;2022-10-22T13:48:23;7.53;;;3.17;;
16304;SDS011;8261;47.678;-122.174;2022-10-22T13:50:56;4.20;;;2.30;;
16304;SDS011;8261;47.678;-122.174;2022-10-22T13:53:27;6.70;;;1.90;;
16304;SDS011;8261;47.678;-122.174;2022-10-22T13:56:00;6.53;;;2.20;;
16304;SDS011;8261;47.678;-122.174;2022-10-22T13:58:33;3.60;;;2.00;;
16304;SDS011;8261;47.678;-122.174;2022-10-22T14:01:08;5.23;;;1.70;;
16304;SDS011;8261;47.678;-122.174;2022-10-22T14:03:46;8.63;;;2.07;;
16304;SDS011;8261;47.678;-122.174;2022-10-22T14:06:19;14.17;;;2.27;;
16304;SDS011;8261;47.678;-122.174;2022-10-22T14:08:53;7.10;;;1.87;;
16304;SDS011;8261;47.678;-122.174;2022-10-22T14:11:27;13.13;;;2.30;;
16304;SDS011;8261;47.678;-122.174;2022-10-22T14:14:01;3.17;;;1.57;;
16304;SDS011;8261;47.678;-122.174;2022-10-22T14:16:35;1.63;;;1.17;;
16304;SDS011;8261;47.678;-122.174;2022-10-22T14:19:08;6.50;;;1.50;;
16304;SDS011;8261;47.678;-122.174;2022-10-22T14:21:47;5.13;;;1.43;;
16304;SDS011;8261;47.678;-122.174;2022-10-22T14:24:18;6.50;;;1.50;;
16304;SDS011;8261;47.678;-122.174;2022-10-22T14:26:50;1.27;;;0.90;;
16304;SDS011;8261;47.678;-122.174;2022-10-22T14:29:23;1.57;;;1.03;;
16304;SDS011;8261;47.678;-122.174;2022-10-22T14:31:54;2.90;;;1.50;;
16304;SDS011;8261;47.678;-122.174;2022-10-22T14:34:26;2.53;;;1.23;;
16304;SDS011;8261;47.678;-122.174;2022-10-22T14:36:57;9.80;;;1.50;;
16304;SDS011;8261;47.678;-122.174;2022-10-22T14:39:28;4.60;;;1.57;;
16304;SDS011;8261;47.678;-122.174;2022-10-22T14:41:59;9.87;;;1.60;;
16304;SDS011;8261;47.678;-122.174;2022-10-22T14:44:33;3.50;;;1.10;;
16304;SDS011;8261;47.678;-122.174;2022-10-22T14:47:04;2.13;;;1.27;;
16304;SDS011;8261;47.678;-122.174;2022-10-22T14:49:35;3.43;;;1.10;;
16304;SDS011;8261;47.678;-122.174;2022-10-22T14:52:09;1.57;;;0.97;;
16304;SDS011;8261;47.678;-122.174;2022-10-22T14:54:44;8.03;;;1.30;;
16304;SDS011;8261;47.678;-122.174;2022-10-22T14:57:16;5.97;;;1.53;;
16304;SDS011;8261;47.678;-122.174;2022-10-22T14:59:52;2.13;;;1.20;;
16304;SDS011;8261;47.678;-122.174;2022-10-22T15:02:23;2.73;;;1.30;;
16304;SDS011;8261;47.678;-122.174;2022-10-22T15:04:54;2.63;;;1.40;;
16304;SDS011;8261;47.678;-122.174;2022-10-22T15:07:26;2.23;;;1.20;;
16304;SDS011;8261;47.678;-122.174;2022-10-22T15:09:57;3.40;;;1.00;;
16304;SDS011;8261;47.678;-122.174;2022-10-22T15:12:29;1.60;;;1.10;;
16304;SDS011;8261;47.678;-122.174;2022-10-22T15:15:03;1.43;;;1.00;;
16304;SDS011;8261;47.678;-122.174;2022-10-22T15:17:35;3.17;;;1.30;;